PWSweather.com
Personal Weather Stations
Station Observations
IONTARIO88
Lincoln, ON L0R

Lincoln, ON L0R

Lat: 43.1763563, Lon: -79.4719525

Elevation: 297

Station Type: Davis Vantage Pro 2 Plus

http://www.beamsvillewx.ca

Latest ConditionsUpdated 12:10:02 PM EDT Friday, Oct 31, 2014
Currently Today's Max Today's Min Today's Average
Temperature 46.1°F7.8°C 46.1°F7.8°C 42.4°F5.8°C 43.3°F6.3°C
Dew Point 44.2°F6.8°C 44.2°F6.8°C 37.0°F2.8°C 39.9°F4.4°C
Winds Calm Calm 1.5 mph NW2.4 kmh NW - 0.0 mph 0.0 kmh
Wind Gusts -- 3.0 mph4.8 kmh - -
Humidity 93% 94% 79% 88%
Pressure 29.92 in1013.2 mb 30.01 in1016.3 mb 29.92 in1013.2 mb -
Precipitation - 0.09 in2.3 mm - -
Hour Temp Dew Point Humidity Winds Wind Gusts Pressure Precip Precip Rate Daily Precip Total
12:10 PM 46.1°F7.8°C 44.2°F6.8°C 93% Calm Calm -- 29.92 in1013.2 mb 0.00 in0.0 mm 0.00 in/hr0.0 mm/hr 0.09 in2.3 mm
12:00 PM 46.0°F7.8°C 43.8°F6.6°C 92% Calm Calm 1.0 mph1.6 kmh 29.92 in1013.2 mb 0.00 in0.0 mm 0.00 in/hr0.0 mm/hr 0.09 in2.3 mm
11:50 AM 46.0°F7.8°C 43.8°F6.6°C 92% Calm Calm 1.0 mph1.6 kmh 29.93 in1013.5 mb 0.00 in0.0 mm 0.00 in/hr0.0 mm/hr 0.09 in2.3 mm
11:40 AM 45.8°F7.7°C 43.6°F6.4°C 92% Calm Calm -- 29.93 in1013.5 mb 0.00 in0.0 mm 0.00 in/hr0.0 mm/hr 0.09 in2.3 mm
11:30 AM 45.9°F7.7°C 43.4°F6.3°C 91% 0.3 mph NW0.5 kmh NW 2.0 mph3.2 kmh 29.93 in1013.5 mb 0.00 in0.0 mm 0.00 in/hr0.0 mm/hr 0.09 in2.3 mm
11:20 AM 45.9°F7.7°C 43.7°F6.5°C 92% Calm Calm -- 29.93 in1013.5 mb 0.00 in0.0 mm 0.00 in/hr0.0 mm/hr 0.09 in2.3 mm
11:10 AM 45.7°F7.6°C 43.8°F6.6°C 93% Calm Calm -- 29.93 in1013.5 mb 0.00 in0.0 mm 0.00 in/hr0.0 mm/hr 0.09 in2.3 mm
11:00 AM 45.5°F7.5°C 43.6°F6.4°C 93% 0.1 mph NW0.2 kmh NW 1.0 mph1.6 kmh 29.93 in1013.5 mb 0.01 in0.3 mm 0.01 in/hr0.3 mm/hr 0.09 in2.3 mm
10:50 AM 45.1°F7.3°C 43.2°F6.2°C 93% Calm Calm -- 29.94 in1013.9 mb 0.00 in0.0 mm 0.00 in/hr0.0 mm/hr 0.08 in2.0 mm
10:40 AM 44.8°F7.1°C 42.9°F6.1°C 93% 0.8 mph NW1.3 kmh NW -- 29.94 in1013.9 mb 0.01 in0.3 mm 0.06 in/hr1.5 mm/hr 0.08 in2.0 mm
10:30 AM 44.7°F7.1°C 43.1°F6.2°C 94% Calm Calm -- 29.94 in1013.9 mb 0.00 in0.0 mm 0.00 in/hr0.0 mm/hr 0.07 in1.8 mm
10:20 AM 44.4°F6.9°C 42.8°F6.0°C 94% Calm Calm -- 29.94 in1013.9 mb 0.00 in0.0 mm 0.00 in/hr0.0 mm/hr 0.07 in1.8 mm
10:10 AM 44.0°F6.7°C 42.1°F5.6°C 93% Calm Calm -- 29.94 in1013.9 mb 0.00 in0.0 mm 0.00 in/hr0.0 mm/hr 0.07 in1.8 mm
10:00 AM 43.8°F6.6°C 41.9°F5.5°C 93% Calm Calm -- 29.95 in1014.2 mb 0.01 in0.3 mm 0.01 in/hr0.3 mm/hr 0.07 in1.8 mm
09:50 AM 43.5°F6.4°C 41.6°F5.3°C 93% Calm Calm -- 29.95 in1014.2 mb 0.00 in0.0 mm 0.00 in/hr0.0 mm/hr 0.06 in1.5 mm
09:40 AM 43.2°F6.2°C 41.0°F5.0°C 92% Calm Calm -- 29.95 in1014.2 mb 0.01 in0.3 mm 0.06 in/hr1.5 mm/hr 0.06 in1.5 mm
09:30 AM 43.1°F6.2°C 40.9°F4.9°C 92% Calm Calm -- 29.95 in1014.2 mb 0.00 in0.0 mm 0.00 in/hr0.0 mm/hr 0.06 in1.5 mm
09:20 AM 43.1°F6.2°C 41.2°F5.1°C 93% Calm Calm -- 29.96 in1014.6 mb 0.00 in0.0 mm 0.00 in/hr0.0 mm/hr 0.06 in1.5 mm
09:10 AM 42.9°F6.1°C 41.0°F5.0°C 93% Calm Calm -- 29.96 in1014.6 mb 0.00 in0.0 mm 0.00 in/hr0.0 mm/hr 0.06 in1.5 mm
09:00 AM 42.8°F6.0°C 40.6°F4.8°C 92% Calm Calm -- 29.96 in1014.6 mb 0.00 in0.0 mm 0.00 in/hr0.0 mm/hr 0.06 in1.5 mm
08:50 AM 42.7°F5.9°C 40.5°F4.7°C 92% Calm Calm -- 29.96 in1014.6 mb 0.00 in0.0 mm 0.00 in/hr0.0 mm/hr 0.06 in1.5 mm
08:40 AM 42.6°F5.9°C 40.4°F4.7°C 92% Calm Calm -- 29.96 in1014.6 mb 0.00 in0.0 mm 0.00 in/hr0.0 mm/hr 0.06 in1.5 mm
08:30 AM 42.6°F5.9°C 40.4°F4.7°C 92% Calm Calm -- 29.96 in1014.6 mb 0.00 in0.0 mm 0.00 in/hr0.0 mm/hr 0.06 in1.5 mm
08:20 AM 42.6°F5.9°C 40.4°F4.7°C 92% Calm Calm -- 29.96 in1014.6 mb 0.01 in0.3 mm 0.06 in/hr1.5 mm/hr 0.06 in1.5 mm
08:10 AM 42.6°F5.9°C 40.4°F4.7°C 92% Calm Calm -- 29.95 in1014.2 mb 0.01 in0.3 mm 0.06 in/hr1.5 mm/hr 0.05 in1.3 mm
08:00 AM 42.6°F5.9°C 40.4°F4.7°C 92% Calm Calm -- 29.95 in1014.2 mb 0.00 in0.0 mm 0.00 in/hr0.0 mm/hr 0.04 in1.0 mm
07:50 AM 42.7°F5.9°C 40.5°F4.7°C 92% Calm Calm -- 29.96 in1014.6 mb 0.01 in0.3 mm 0.06 in/hr1.5 mm/hr 0.04 in1.0 mm
07:40 AM 42.7°F5.9°C 40.3°F4.6°C 91% Calm Calm -- 29.96 in1014.6 mb 0.00 in0.0 mm 0.00 in/hr0.0 mm/hr 0.03 in0.8 mm
07:30 AM 42.8°F6.0°C 40.4°F4.7°C 91% Calm Calm -- 29.96 in1014.6 mb 0.01 in0.3 mm 0.06 in/hr1.5 mm/hr 0.03 in0.8 mm
07:20 AM 42.8°F6.0°C 40.1°F4.5°C 90% Calm Calm -- 29.96 in1014.6 mb 0.00 in0.0 mm 0.00 in/hr0.0 mm/hr 0.02 in0.5 mm
07:10 AM 42.9°F6.1°C 40.2°F4.6°C 90% Calm Calm -- 29.96 in1014.6 mb 0.01 in0.3 mm 0.06 in/hr1.5 mm/hr 0.02 in0.5 mm
07:00 AM 42.9°F6.1°C 39.9°F4.4°C 89% Calm Calm -- 29.96 in1014.6 mb 0.00 in0.0 mm 0.00 in/hr0.0 mm/hr 0.02 in0.5 mm
06:50 AM 42.9°F6.1°C 39.9°F4.4°C 89% Calm Calm -- 29.96 in1014.6 mb 0.01 in0.3 mm 0.06 in/hr1.5 mm/hr 0.02 in0.5 mm
06:40 AM 42.9°F6.1°C 39.6°F4.2°C 88% Calm Calm -- 29.96 in1014.6 mb 0.00 in0.0 mm 0.00 in/hr0.0 mm/hr 0.01 in0.3 mm
06:30 AM 42.9°F6.1°C 39.9°F4.4°C 89% Calm Calm -- 29.96 in1014.6 mb 0.00 in0.0 mm 0.00 in/hr0.0 mm/hr 0.01 in0.3 mm
06:20 AM 42.9°F6.1°C 39.6°F4.2°C 88% Calm Calm -- 29.96 in1014.6 mb 0.00 in0.0 mm 0.00 in/hr0.0 mm/hr 0.01 in0.3 mm
06:10 AM 42.9°F6.1°C 39.8°F4.3°C 89% Calm Calm -- 29.96 in1014.6 mb 0.00 in0.0 mm 0.00 in/hr0.0 mm/hr 0.01 in0.3 mm
06:00 AM 42.9°F6.1°C 39.9°F4.4°C 89% Calm Calm -- 29.96 in1014.6 mb 0.01 in0.3 mm 0.01 in/hr0.3 mm/hr 0.01 in0.3 mm
05:50 AM 42.9°F6.1°C 39.9°F4.4°C 89% Calm Calm -- 29.96 in1014.6 mb 0.00 in0.0 mm 0.00 in/hr0.0 mm/hr 0.00 in0.0 mm
05:40 AM 42.9°F6.1°C 39.6°F4.2°C 88% Calm Calm -- 29.96 in1014.6 mb 0.00 in0.0 mm 0.00 in/hr0.0 mm/hr 0.00 in0.0 mm
05:30 AM 42.9°F6.1°C 39.6°F4.2°C 88% Calm Calm -- 29.96 in1014.6 mb 0.00 in0.0 mm 0.00 in/hr0.0 mm/hr 0.00 in0.0 mm
05:20 AM 42.9°F6.1°C 39.6°F4.2°C 88% Calm Calm 1.0 mph1.6 kmh 29.96 in1014.6 mb 0.00 in0.0 mm 0.00 in/hr0.0 mm/hr 0.00 in0.0 mm
05:10 AM 42.9°F6.1°C 39.3°F4.1°C 87% Calm Calm -- 29.96 in1014.6 mb 0.00 in0.0 mm 0.00 in/hr0.0 mm/hr 0.00 in0.0 mm
05:00 AM 43.0°F6.1°C 39.1°F3.9°C 86% Calm Calm -- 29.96 in1014.6 mb 0.00 in0.0 mm 0.00 in/hr0.0 mm/hr 0.00 in0.0 mm
04:50 AM 43.0°F6.1°C 38.8°F3.8°C 85% Calm Calm -- 29.96 in1014.6 mb 0.00 in0.0 mm 0.00 in/hr0.0 mm/hr 0.00 in0.0 mm
04:40 AM 43.1°F6.2°C 38.9°F3.8°C 85% Calm Calm 1.0 mph1.6 kmh 29.97 in1014.9 mb 0.00 in0.0 mm 0.00 in/hr0.0 mm/hr 0.00 in0.0 mm
04:30 AM 43.1°F6.2°C 38.9°F3.8°C 85% 1.5 mph NW2.4 kmh NW 3.0 mph4.8 kmh 29.97 in1014.9 mb 0.00 in0.0 mm 0.00 in/hr0.0 mm/hr 0.00 in0.0 mm
04:20 AM 43.0°F6.1°C 39.1°F3.9°C 86% 0.2 mph NW0.3 kmh NW 3.0 mph4.8 kmh 29.97 in1014.9 mb 0.00 in0.0 mm 0.00 in/hr0.0 mm/hr 0.00 in0.0 mm
04:10 AM 42.9°F6.1°C 39.0°F3.9°C 86% Calm Calm -- 29.97 in1014.9 mb 0.00 in0.0 mm 0.00 in/hr0.0 mm/hr 0.00 in0.0 mm
04:00 AM 42.9°F6.1°C 39.0°F3.9°C 86% Calm Calm -- 29.97 in1014.9 mb 0.00 in0.0 mm 0.00 in/hr0.0 mm/hr 0.00 in0.0 mm
03:50 AM 43.0°F6.1°C 39.1°F3.9°C 86% Calm Calm -- 29.98 in1015.2 mb 0.00 in0.0 mm 0.00 in/hr0.0 mm/hr 0.00 in0.0 mm
03:40 AM 43.0°F6.1°C 38.8°F3.8°C 85% Calm Calm -- 29.98 in1015.2 mb 0.00 in0.0 mm 0.00 in/hr0.0 mm/hr 0.00 in0.0 mm
03:30 AM 43.0°F6.1°C 38.8°F3.8°C 85% Calm Calm -- 29.98 in1015.2 mb 0.00 in0.0 mm 0.00 in/hr0.0 mm/hr 0.00 in0.0 mm
03:20 AM 43.1°F6.2°C 38.5°F3.6°C 84% Calm Calm -- 29.99 in1015.6 mb 0.00 in0.0 mm 0.00 in/hr0.0 mm/hr 0.00 in0.0 mm
03:10 AM 43.1°F6.2°C 38.3°F3.5°C 83% Calm Calm -- 29.99 in1015.6 mb 0.00 in0.0 mm 0.00 in/hr0.0 mm/hr 0.00 in0.0 mm
03:00 AM 43.1°F6.2°C 38.0°F3.3°C 82% Calm Calm -- 29.99 in1015.6 mb 0.00 in0.0 mm 0.00 in/hr0.0 mm/hr 0.00 in0.0 mm
02:50 AM 43.1°F6.2°C 38.3°F3.5°C 83% Calm Calm -- 29.99 in1015.6 mb 0.00 in0.0 mm 0.00 in/hr0.0 mm/hr 0.00 in0.0 mm
02:40 AM 43.1°F6.2°C 38.3°F3.5°C 83% Calm Calm 1.0 mph1.6 kmh 29.99 in1015.6 mb 0.00 in0.0 mm 0.00 in/hr0.0 mm/hr 0.00 in0.0 mm
02:30 AM 43.1°F6.2°C 38.0°F3.3°C 82% Calm Calm -- 29.99 in1015.6 mb 0.00 in0.0 mm 0.00 in/hr0.0 mm/hr 0.00 in0.0 mm
02:20 AM 43.2°F6.2°C 37.8°F3.2°C 81% Calm Calm -- 30.00 in1015.9 mb 0.00 in0.0 mm 0.00 in/hr0.0 mm/hr 0.00 in0.0 mm
02:10 AM 43.2°F6.2°C 37.4°F3.0°C 80% Calm Calm -- 30.00 in1015.9 mb 0.00 in0.0 mm 0.00 in/hr0.0 mm/hr 0.00 in0.0 mm
02:00 AM 43.2°F6.2°C 37.1°F2.8°C 79% 0.4 mph NW0.6 kmh NW 3.0 mph4.8 kmh 30.00 in1015.9 mb 0.00 in0.0 mm 0.00 in/hr0.0 mm/hr 0.00 in0.0 mm
01:50 AM 43.2°F6.2°C 37.1°F2.8°C 79% Calm Calm -- 30.00 in1015.9 mb 0.00 in0.0 mm 0.00 in/hr0.0 mm/hr 0.00 in0.0 mm
01:40 AM 43.0°F6.1°C 37.3°F2.9°C 80% 0.2 mph NW0.3 kmh NW 2.0 mph3.2 kmh 30.00 in1015.9 mb 0.00 in0.0 mm 0.00 in/hr0.0 mm/hr 0.00 in0.0 mm
01:30 AM 42.7°F5.9°C 37.0°F2.8°C 80% Calm Calm 1.0 mph1.6 kmh 30.00 in1015.9 mb 0.00 in0.0 mm 0.00 in/hr0.0 mm/hr 0.00 in0.0 mm
01:20 AM 42.6°F5.9°C 37.5°F3.1°C 82% Calm Calm 1.0 mph1.6 kmh 30.00 in1015.9 mb 0.00 in0.0 mm 0.00 in/hr0.0 mm/hr 0.00 in0.0 mm
01:10 AM 42.5°F5.8°C 37.7°F3.2°C 83% Calm Calm -- 30.00 in1015.9 mb 0.00 in0.0 mm 0.00 in/hr0.0 mm/hr 0.00 in0.0 mm
01:00 AM 42.4°F5.8°C 37.9°F3.3°C 84% Calm Calm -- 30.00 in1015.9 mb 0.00 in0.0 mm 0.00 in/hr0.0 mm/hr 0.00 in0.0 mm
12:50 AM 42.4°F5.8°C 37.9°F3.3°C 84% Calm Calm -- 30.00 in1015.9 mb 0.00 in0.0 mm 0.00 in/hr0.0 mm/hr 0.00 in0.0 mm
12:40 AM 42.5°F5.8°C 37.7°F3.2°C 83% Calm Calm -- 30.01 in1016.3 mb 0.00 in0.0 mm 0.00 in/hr0.0 mm/hr 0.00 in0.0 mm
12:30 AM 42.6°F5.9°C 37.5°F3.1°C 82% Calm Calm -- 30.01 in1016.3 mb 0.00 in0.0 mm 0.00 in/hr0.0 mm/hr 0.00 in0.0 mm
12:20 AM 42.7°F5.9°C 37.6°F3.1°C 82% Calm Calm -- 30.01 in1016.3 mb 0.00 in0.0 mm 0.00 in/hr0.0 mm/hr 0.00 in0.0 mm
12:10 AM 42.7°F5.9°C 37.6°F3.1°C 82% Calm Calm -- 30.01 in1016.3 mb 0.00 in0.0 mm 0.00 in/hr0.0 mm/hr 0.00 in0.0 mm
12:00 AM 42.7°F5.9°C 37.3°F2.9°C 81% Calm Calm -- 30.01 in1016.3 mb 0.00 in0.0 mm 0.00 in/hr0.0 mm/hr 0.00 in0.0 mm